East Lancaster, PA (17605)

2:29 PM EDT on August 26, 2016 (GMT -0400)
Lancaster pa | | Change Station

Elev 430 ft 40.00 °N, 76.24 °W | Updated 10 minutes ago

Scattered Clouds
Scattered Clouds
90.0 °F
Feels Like 96 °F
N
8.9
Wind Variable Wind from NNW

Today
High -- | Low -- °F
--% Chance of Precip.
Yesterday
High -- | Low -- °F
Precip. -- in
Pressure 30.04 in
Visibility 10.0 miles
Clouds Scattered Clouds 3700 ft
Heat Index 96 °F
Dew Point 70 °F
Humidity 53%
Rainfall 0.00 in
Snow Depth Not available.
6:27 AM 7:45 PM
Waning Crescent, 32% visible
METAR KLNS 261753Z 32011KT 10SM SCT037 32/21 A3005 RMK AO2 SLP173 T03170211 10322 20244 58002
Pressure 30.04 in
Visibility 10.0 miles
Clouds Scattered Clouds 3700 ft
Heat Index 96 °F
Dew Point 70 °F
Humidity 53%
Rainfall 0.00 in
Snow Depth Not available.
6:27 AM 7:45 PM
Waning Crescent, 32% visible
METAR KLNS 261753Z 32011KT 10SM SCT037 32/21 A3005 RMK AO2 SLP173 T03170211 10322 20244 58002

10-Day Weather Forecast

Almanac

Astronomy

Aug. 26, 2016 Rise Set
Actual Time
Civil Twilight
Nautical Twilight
Astronomical Twilight
Moon
Length of Visible Light
Length of Day
Tomorrow will be .
, % of the Moon is Illuminated

Today's Extremes

State Highs State Lows

Community

WunderPhotos

Upload Photos

1,935,169 photos uploaded!

WunderBlog® & News

Nearby

Air Quality

  Air Quality AQ Index Pollutant
Not available.

Snow Depth

Station Depth Elevation

Earthquake Activity

City Distance Mag. Time & Date
Minimum magnitude displayed is 2.5.

Coastal Water Temperatures

Place Temperature

Stations

Nearby Weather Stations

Station Location Temp. Windchill Dew Point Humidity Wind Precip. Elev Updated Type
                   

Watches & Warnings

There are currently no watches in effect.